createdAt,value
2019-01-10T00:00:03.023Z,5.78
2019-01-10T00:01:03.101Z,5.73
2019-01-10T00:02:02.730Z,5.73
2019-01-10T00:03:03.577Z,5.71
2019-01-10T00:04:02.388Z,5.71
2019-01-10T00:05:01.763Z,5.56
2019-01-10T00:06:02.919Z,5.81
2019-01-10T00:07:03.068Z,5.81
2019-01-10T00:08:02.619Z,5.68
2019-01-10T00:09:03.115Z,5.48
2019-01-10T00:10:03.248Z,5.59
2019-01-10T00:11:02.981Z,5.25
2019-01-10T00:12:03.138Z,5.29
2019-01-10T00:13:02.713Z,5.66
2019-01-10T00:14:03.131Z,6.23
2019-01-10T00:15:02.832Z,4.98
2019-01-10T00:16:02.729Z,6.08
2019-01-10T00:17:03.304Z,6.01
2019-01-10T00:18:03.304Z,6.01
2019-01-10T00:19:02.664Z,5.71
2019-01-10T00:20:03.307Z,5.44
2019-01-10T00:21:03.212Z,5.28
2019-01-10T00:22:02.891Z,5.28
2019-01-10T00:23:03.460Z,5.46
2019-01-10T00:24:03.498Z,5.46
2019-01-10T00:25:03.076Z,5.45
2019-01-10T00:26:03.084Z,6.01
2019-01-10T00:27:03.338Z,6.07
2019-01-10T00:28:02.664Z,5.5
2019-01-10T00:29:03.111Z,5.36
2019-01-10T00:30:03.162Z,6.39
2019-01-10T00:31:02.451Z,5.11
2019-01-10T00:32:03.344Z,6.12
2019-01-10T00:33:02.751Z,5.27
2019-01-10T00:34:02.804Z,5.21
2019-01-10T00:35:02.730Z,5.69
2019-01-10T00:36:03.108Z,5.14
2019-01-10T00:37:02.721Z,5.65
2019-01-10T00:38:03.374Z,5.65
2019-01-10T00:39:02.772Z,4.93
2019-01-10T00:40:03.241Z,4.93
2019-01-10T00:41:02.624Z,5.44
2019-01-10T00:42:03.063Z,5.44
2019-01-10T00:43:02.757Z,5.24
2019-01-10T00:44:02.918Z,5.52
2019-01-10T00:45:02.961Z,6.41
2019-01-10T00:46:03.285Z,6.41
2019-01-10T00:47:03.168Z,6.54
2019-01-10T00:48:03.013Z,6.54
2019-01-10T00:49:03.418Z,5.16
2019-01-10T00:50:03.300Z,8.51
2019-01-10T00:51:03.425Z,13.44
2019-01-10T00:52:02.422Z,7.28
2019-01-10T00:53:01.686Z,6.73
2019-01-10T00:54:02.276Z,5.74
2019-01-10T00:55:03.017Z,5.74
2019-01-10T00:56:03.329Z,5.74
2019-01-10T00:57:03.164Z,7.32
2019-01-10T00:58:01.598Z,6.03
2019-01-10T00:59:03.454Z,8.02
2019-01-10T01:00:03.459Z,8.02
2019-01-10T01:01:02.983Z,5.3
2019-01-10T01:02:03.229Z,6.94
2019-01-10T01:03:02.816Z,7.02
2019-01-10T01:04:03.454Z,7.02
2019-01-10T01:05:03.640Z,5.23
2019-01-10T01:06:03.106Z,5.23
2019-01-10T01:07:02.981Z,6.38
2019-01-10T01:08:02.664Z,6.38
2019-01-10T01:09:02.890Z,6.49
2019-01-10T01:10:03.284Z,6.49
2019-01-10T01:11:03.541Z,5.62
2019-01-10T01:12:03.057Z,5.62
2019-01-10T01:13:03.456Z,4.82
2019-01-10T01:14:03.328Z,5.55
2019-01-10T01:15:03.244Z,5.24
2019-01-10T01:16:02.870Z,5.59
2019-01-10T01:17:01.759Z,5.17
2019-01-10T01:18:01.804Z,5.08
2019-01-10T01:19:03.218Z,5.13
2019-01-10T01:20:02.614Z,3.76
2019-01-10T01:21:02.585Z,4.84
2019-01-10T01:22:03.129Z,5.06
2019-01-10T01:23:03.001Z,4.92
2019-01-10T01:24:02.590Z,4.92
2019-01-10T01:25:03.347Z,5.56
2019-01-10T01:26:02.982Z,5.42
2019-01-10T01:27:02.888Z,5.42
2019-01-10T01:28:03.302Z,5.64
2019-01-10T01:29:02.630Z,5.64
2019-01-10T01:30:03.574Z,5.27
2019-01-10T01:31:03.502Z,5.27
2019-01-10T01:32:02.693Z,6.71
2019-01-10T01:33:03.018Z,5.14
2019-01-10T01:34:03.444Z,5.79
2019-01-10T01:35:03.248Z,5.75
2019-01-10T01:36:03.099Z,5.75
2019-01-10T01:37:02.600Z,6.24
2019-01-10T01:38:03.440Z,6.01
2019-01-10T01:39:03.133Z,6.21
2019-01-10T01:40:03.542Z,5.59
2019-01-10T01:41:02.262Z,5.45
2019-01-10T01:42:03.287Z,6.08
2019-01-10T01:43:07.820Z,6.08
2019-01-10T01:44:03.446Z,5.71
2019-01-10T01:45:02.918Z,5.38
2019-01-10T01:46:03.079Z,5.22
2019-01-10T01:47:02.840Z,5.3
2019-01-10T01:48:03.460Z,6.41
2019-01-10T01:49:02.663Z,5.04
2019-01-10T01:50:02.885Z,5.34
2019-01-10T01:51:02.806Z,6.4
2019-01-10T01:52:03.101Z,12.28
2019-01-10T01:53:03.555Z,9.23
2019-01-10T01:54:02.718Z,6.59
2019-01-10T01:55:03.169Z,6.59
2019-01-10T01:56:03.296Z,8.46
2019-01-10T01:57:03.779Z,6.3
2019-01-10T01:58:03.062Z,6.28
2019-01-10T01:59:02.966Z,6.28
2019-01-10T02:00:02.981Z,5.85
2019-01-10T02:01:03.154Z,5.3
2019-01-10T02:02:03.188Z,4.97
2019-01-10T02:03:02.871Z,5.79
2019-01-10T02:04:02.637Z,4.93
2019-01-10T02:05:03.624Z,5.54
2019-01-10T02:06:02.981Z,5.04
2019-01-10T02:07:03.527Z,5.92
2019-01-10T02:08:02.940Z,6.11
2019-01-10T02:09:02.017Z,5.79
2019-01-10T02:10:03.217Z,5.35
2019-01-10T02:11:02.624Z,5.59
2019-01-10T02:12:03.356Z,4.82
2019-01-10T02:13:02.537Z,4.74
2019-01-10T02:14:03.327Z,5.74
2019-01-10T02:15:03.440Z,5.74
2019-01-10T02:16:03.341Z,4.29
2019-01-10T02:17:03.436Z,4.29
2019-01-10T02:18:02.879Z,4.88
2019-01-10T02:19:02.993Z,4.88
2019-01-10T02:20:03.208Z,5.3
2019-01-10T02:21:02.648Z,5.3
2019-01-10T02:22:03.327Z,6.03
2019-01-10T02:23:03.272Z,6.03
2019-01-10T02:24:02.832Z,6.42
2019-01-10T02:25:02.861Z,6.42
2019-01-10T02:26:02.174Z,6.35
2019-01-10T02:27:03.344Z,5.5
2019-01-10T02:28:02.761Z,6.63
2019-01-10T02:29:02.634Z,6.63
2019-01-10T02:30:03.381Z,6.09
2019-01-10T02:31:02.703Z,6.74
2019-01-10T02:32:03.555Z,7.17
2019-01-10T02:33:02.593Z,7.17
2019-01-10T02:34:02.985Z,5.55
2019-01-10T02:35:02.940Z,4.88
2019-01-10T02:36:02.853Z,7.71
2019-01-10T02:37:03.315Z,7.71
2019-01-10T02:38:02.888Z,5.19
2019-01-10T02:39:03.634Z,5.46
2019-01-10T02:40:02.738Z,4.97
2019-01-10T02:41:02.951Z,5.62
2019-01-10T02:42:02.777Z,4.95
2019-01-10T02:43:04.558Z,4.95
2019-01-10T02:44:03.218Z,5.1
2019-01-10T02:45:03.163Z,5.1
2019-01-10T02:46:02.653Z,7.49
2019-01-10T02:47:02.707Z,6.28
2019-01-10T02:48:02.461Z,5.15
2019-01-10T02:49:02.547Z,5.71
2019-01-10T02:50:02.584Z,6.07
2019-01-10T02:51:02.357Z,7.6
2019-01-10T02:52:03.153Z,6.21
2019-01-10T02:53:02.868Z,6.38
2019-01-10T02:54:02.853Z,4.99
2019-01-10T02:55:03.564Z,5.72
2019-01-10T02:56:03.748Z,4.91
2019-01-10T02:57:03.564Z,4.58
2019-01-10T02:58:03.162Z,4.58
2019-01-10T02:59:03.032Z,4.12
2019-01-10T03:00:03.120Z,4.69
2019-01-10T03:01:02.645Z,4.56
2019-01-10T03:02:03.439Z,4.91
2019-01-10T03:03:03.599Z,4.91
2019-01-10T03:04:03.300Z,3.99
2019-01-10T03:05:02.567Z,4.58
2019-01-10T03:06:02.679Z,4.52
2019-01-10T03:07:03.357Z,4.52
2019-01-10T03:08:03.494Z,5.15
2019-01-10T03:09:03.127Z,5.53
2019-01-10T03:10:02.660Z,5.53
2019-01-10T03:11:02.994Z,7.89
2019-01-10T03:12:02.122Z,4.28
2019-01-10T03:13:02.304Z,5.09
2019-01-10T03:14:03.474Z,4.28
2019-01-10T03:15:01.951Z,5.48
2019-01-10T03:16:02.627Z,4.84
2019-01-10T03:17:03.661Z,6.56
2019-01-10T03:18:02.958Z,4.88
2019-01-10T03:19:02.944Z,5.32
2019-01-10T03:20:02.588Z,4.84
2019-01-10T03:21:03.719Z,5.05
2019-01-10T03:22:02.932Z,5.32
2019-01-10T03:23:03.414Z,4.34
2019-01-10T03:24:03.465Z,5.04
2019-01-10T03:25:02.907Z,5.24
2019-01-10T03:26:03.106Z,4.33
2019-01-10T03:27:02.997Z,6.01
2019-01-10T03:28:02.428Z,6.01
2019-01-10T03:29:03.296Z,5.78
2019-01-10T03:30:03.579Z,5.78
2019-01-10T03:31:03.209Z,5.11
2019-01-10T03:32:03.512Z,5.11
2019-01-10T03:33:02.774Z,5.03
2019-01-10T03:34:02.914Z,5.03
2019-01-10T03:35:03.448Z,5.07
2019-01-10T03:36:03.681Z,5.28
2019-01-10T03:37:03.023Z,5.21
2019-01-10T03:38:01.591Z,4.84
2019-01-10T03:39:02.907Z,6.66
2019-01-10T03:40:02.866Z,4.89
2019-01-10T03:41:03.557Z,5.37
2019-01-10T03:42:03.398Z,5.37
2019-01-10T03:43:02.876Z,5.24
2019-01-10T03:44:03.359Z,5.52
2019-01-10T03:45:02.703Z,8.92
2019-01-10T03:46:03.424Z,5.11
2019-01-10T03:47:03.329Z,4.21
2019-01-10T03:48:03.008Z,4.21
2019-01-10T03:49:02.744Z,3.75
2019-01-10T03:50:03.202Z,4.33
2019-01-10T03:51:02.723Z,4.75
2019-01-10T03:52:02.801Z,4.75
2019-01-10T03:53:03.535Z,4.17
2019-01-10T03:54:03.500Z,4.17
2019-01-10T03:55:02.934Z,4.96
2019-01-10T03:56:02.963Z,3.8
2019-01-10T03:57:02.787Z,3.8
2019-01-10T03:58:02.665Z,3.84
2019-01-10T03:59:02.918Z,4.06
2019-01-10T04:00:01.776Z,4.21
2019-01-10T04:01:02.770Z,4.15
2019-01-10T04:02:03.219Z,3.86
2019-01-10T04:03:03.632Z,4.88
2019-01-10T04:04:03.466Z,3.82
2019-01-10T04:05:03.262Z,3.79
2019-01-10T04:06:03.262Z,3.79
2019-01-10T04:07:03.468Z,4.9
2019-01-10T04:08:03.116Z,4.99
2019-01-10T04:09:03.128Z,4.18
2019-01-10T04:10:02.645Z,4.18
2019-01-10T04:11:03.412Z,4.69
2019-01-10T04:12:03.639Z,4.69
2019-01-10T04:13:02.603Z,4.48
2019-01-10T04:14:02.765Z,5.09
2019-01-10T04:15:03.594Z,4.56
2019-01-10T04:16:03.367Z,4.56
2019-01-10T04:17:03.068Z,4
2019-01-10T04:18:03.300Z,3.87
2019-01-10T04:19:03.032Z,4.29
2019-01-10T04:20:02.701Z,3.64
2019-01-10T04:21:02.547Z,4.29
2019-01-10T04:22:01.909Z,4.39
2019-01-10T04:23:02.548Z,4.12
2019-01-10T04:24:02.069Z,4.25
2019-01-10T04:25:03.545Z,4.14
2019-01-10T04:26:02.647Z,4.34
2019-01-10T04:27:02.773Z,3.98
2019-01-10T04:28:03.184Z,3.98
2019-01-10T04:29:02.909Z,3.71
2019-01-10T04:30:03.395Z,3.83
2019-01-10T04:31:03.120Z,3.12
2019-01-10T04:32:03.121Z,3.12
2019-01-10T04:33:03.272Z,3.78
2019-01-10T04:34:02.766Z,3.78
2019-01-10T04:35:03.534Z,3.41
2019-01-10T04:36:03.266Z,3.41
2019-01-10T04:37:03.266Z,3.77
2019-01-10T04:38:03.142Z,3.95
2019-01-10T04:39:03.471Z,3.56
2019-01-10T04:40:02.877Z,3.56
2019-01-10T04:41:03.197Z,3.89
2019-01-10T04:42:03.359Z,3.62
2019-01-10T04:43:03.259Z,3.21
2019-01-10T04:44:07.527Z,3.26
2019-01-10T04:45:01.986Z,3.58
2019-01-10T04:46:02.801Z,3.58
2019-01-10T04:47:03.107Z,3.43
2019-01-10T04:48:02.885Z,3.4
2019-01-10T04:49:02.957Z,3.4
2019-01-10T04:50:03.057Z,3.7
2019-01-10T04:51:03.034Z,3.5
2019-01-10T04:52:02.926Z,3.14
2019-01-10T04:53:02.609Z,3.47
2019-01-10T04:54:03.490Z,3.51
2019-01-10T04:55:02.871Z,3.17
2019-01-10T04:56:02.946Z,3.17
2019-01-10T04:57:02.846Z,3.09
2019-01-10T04:58:02.944Z,3.04
2019-01-10T04:59:02.982Z,2.81
2019-01-10T05:00:03.320Z,2.96
2019-01-10T05:01:03.043Z,2.82
2019-01-10T05:02:02.843Z,2.61
2019-01-10T05:03:02.615Z,2.61
2019-01-10T05:04:02.780Z,3.29
2019-01-10T05:05:02.870Z,3.08
2019-01-10T05:06:03.661Z,2.76
2019-01-10T05:07:01.440Z,3.23
2019-01-10T05:08:03.553Z,2.88
2019-01-10T05:09:01.678Z,3.1
2019-01-10T05:10:03.393Z,2.91
2019-01-10T05:11:02.898Z,2.77
2019-01-10T05:12:02.943Z,3.11
2019-01-10T05:13:03.321Z,2.51
2019-01-10T05:14:02.456Z,3.18
2019-01-10T05:15:03.472Z,3.02
2019-01-10T05:16:02.980Z,2.76
2019-01-10T05:17:03.437Z,2.42
2019-01-10T05:18:03.415Z,3.01
2019-01-10T05:19:02.983Z,3.01
2019-01-10T05:20:03.203Z,3.09
2019-01-10T05:21:02.938Z,3.19
2019-01-10T05:22:03.150Z,3.09
2019-01-10T05:23:02.613Z,2.88
2019-01-10T05:24:03.335Z,2.48
2019-01-10T05:25:02.994Z,2.48
2019-01-10T05:26:03.366Z,2.88
2019-01-10T05:27:02.245Z,2.46
2019-01-10T05:28:03.415Z,2.96
2019-01-10T05:29:03.402Z,3.1
2019-01-10T05:30:03.041Z,2.56
2019-01-10T05:31:03.120Z,2.87
2019-01-10T05:32:03.601Z,2.65
2019-01-10T05:33:03.027Z,2.71
2019-01-10T05:34:03.102Z,2.71
2019-01-10T05:35:03.118Z,2.83
2019-01-10T05:36:02.969Z,3.01
2019-01-10T05:37:03.307Z,3.01
2019-01-10T05:38:02.535Z,3.01
2019-01-10T05:39:03.590Z,2.99
2019-01-10T05:40:03.662Z,2.85
2019-01-10T05:41:03.346Z,3.26
2019-01-10T05:42:03.442Z,2.33
2019-01-10T05:43:02.758Z,2.33
2019-01-10T05:44:02.619Z,3.11
2019-01-10T05:45:03.458Z,3.11
2019-01-10T05:46:03.362Z,2.89
2019-01-10T05:47:02.977Z,2.89
2019-01-10T05:48:02.894Z,2.63
2019-01-10T05:49:02.291Z,2.56
2019-01-10T05:50:03.394Z,2.56
2019-01-10T05:51:02.256Z,2.83
2019-01-10T05:52:02.945Z,2.82
2019-01-10T05:53:02.831Z,2.48
2019-01-10T05:54:02.054Z,3.19
2019-01-10T05:55:03.470Z,2.44
2019-01-10T05:56:03.277Z,2.86
2019-01-10T05:57:03.214Z,2.86
2019-01-10T05:58:03.252Z,2.33
2019-01-10T05:59:03.478Z,2.51
2019-01-10T06:00:02.830Z,2.68
2019-01-10T06:01:02.941Z,2.05
2019-01-10T06:02:03.520Z,2.05
2019-01-10T06:03:02.736Z,2.48
2019-01-10T06:04:02.926Z,2.6
2019-01-10T06:05:03.078Z,2.74
2019-01-10T06:06:02.404Z,2.82
2019-01-10T06:07:02.673Z,2.82
2019-01-10T06:08:03.395Z,2.13
2019-01-10T06:09:02.638Z,2.13
2019-01-10T06:10:03.485Z,2.49
2019-01-10T06:11:03.026Z,2.26
2019-01-10T06:12:03.068Z,2.81
2019-01-10T06:13:03.316Z,2.76
2019-01-10T06:14:03.376Z,2.89
2019-01-10T06:15:03.212Z,2.37
2019-01-10T06:16:03.157Z,2.31
2019-01-10T06:17:03.209Z,2.78
2019-01-10T06:18:03.314Z,2.89
2019-01-10T06:19:02.790Z,2.54
2019-01-10T06:20:03.583Z,2.84
2019-01-10T06:21:03.436Z,2.84
2019-01-10T06:22:03.262Z,2.56
2019-01-10T06:23:03.460Z,2.56
2019-01-10T06:24:03.490Z,2.64
2019-01-10T06:25:02.899Z,2.64
2019-01-10T06:26:02.962Z,2.38
2019-01-10T06:27:02.603Z,2.38
2019-01-10T06:28:02.751Z,2.32
2019-01-10T06:29:03.169Z,2.69
2019-01-10T06:30:02.960Z,2.87
2019-01-10T06:31:02.800Z,2.51
2019-01-10T06:32:02.770Z,2.45
2019-01-10T06:33:01.739Z,2.6
2019-01-10T06:34:03.336Z,2.75
2019-01-10T06:35:03.059Z,2.48
2019-01-10T06:36:02.625Z,2.75
2019-01-10T06:37:03.013Z,2.83
2019-01-10T06:38:03.319Z,2.41
2019-01-10T06:39:03.265Z,2.51
2019-01-10T06:40:03.450Z,2.78
2019-01-10T06:41:02.722Z,2.16
2019-01-10T06:42:02.708Z,2.62
2019-01-10T06:43:03.226Z,2.24
2019-01-10T06:44:03.314Z,2.59
2019-01-10T06:45:03.407Z,2.59
2019-01-10T06:46:02.956Z,2.87
2019-01-10T06:47:03.178Z,2.31
2019-01-10T06:48:03.379Z,2.46
2019-01-10T06:49:02.893Z,2.46
2019-01-10T06:50:02.489Z,2.92
2019-01-10T06:51:02.450Z,2.92
2019-01-10T06:52:03.173Z,2.67
2019-01-10T06:53:03.297Z,2.76
2019-01-10T06:54:03.463Z,2.58
2019-01-10T06:55:02.176Z,2.23
2019-01-10T06:56:01.991Z,2.25
2019-01-10T06:57:03.312Z,2.81
2019-01-10T06:58:03.441Z,2.61
2019-01-10T06:59:02.989Z,2.61
2019-01-10T07:00:03.153Z,2.48
2019-01-10T07:01:03.498Z,2.62
2019-01-10T07:02:03.339Z,3
2019-01-10T07:03:02.975Z,2.7
2019-01-10T07:04:03.234Z,2.46
2019-01-10T07:05:03.180Z,2.56
2019-01-10T07:06:03.350Z,2.45
2019-01-10T07:07:03.025Z,2.48
2019-01-10T07:08:03.508Z,2.99
2019-01-10T07:09:03.368Z,2.99
2019-01-10T07:10:03.233Z,3.84
2019-01-10T07:11:02.933Z,3.84
2019-01-10T07:12:03.217Z,2.84
2019-01-10T07:13:03.657Z,2.84
2019-01-10T07:14:03.147Z,3.09
2019-01-10T07:15:03.163Z,3.26
2019-01-10T07:16:02.584Z,2.69
2019-01-10T07:17:02.388Z,2.32
2019-01-10T07:18:03.382Z,2.63
2019-01-10T07:19:01.802Z,2.99
2019-01-10T07:20:03.104Z,2.72
2019-01-10T07:21:03.170Z,2.71
2019-01-10T07:22:03.042Z,2.43
2019-01-10T07:23:02.953Z,2.64
2019-01-10T07:24:03.103Z,3.07
2019-01-10T07:25:02.713Z,2.58
2019-01-10T07:26:02.778Z,2.46
2019-01-10T07:27:03.222Z,2.46
2019-01-10T07:28:03.366Z,2.6
2019-01-10T07:29:03.084Z,3.04
2019-01-10T07:30:03.578Z,2.54
2019-01-10T07:31:03.334Z,2.54
2019-01-10T07:32:02.635Z,2.65
2019-01-10T07:33:02.922Z,2.65
2019-01-10T07:34:03.563Z,2.73
2019-01-10T07:35:03.573Z,2.73
2019-01-10T07:36:03.383Z,2.85
2019-01-10T07:37:13.166Z,2.85
2019-01-10T07:38:03.203Z,2.86
2019-01-10T07:39:02.839Z,2.86
2019-01-10T07:40:03.384Z,2.98
2019-01-10T07:41:02.472Z,2.63
2019-01-10T07:42:03.102Z,2.41
2019-01-10T07:43:02.700Z,2.71
2019-01-10T07:44:03.439Z,2.42
2019-01-10T07:45:03.437Z,2.88
2019-01-10T07:46:02.692Z,2.67
2019-01-10T07:47:02.838Z,2.59
2019-01-10T07:48:02.746Z,2.72
2019-01-10T07:49:03.129Z,2.5
2019-01-10T07:50:03.373Z,2.9
2019-01-10T07:51:02.684Z,2.9
2019-01-10T07:52:02.891Z,2.29
2019-01-10T07:53:03.449Z,2.78
2019-01-10T07:54:03.097Z,2.49
2019-01-10T07:55:03.316Z,2.49
2019-01-10T07:56:03.241Z,2.53
2019-01-10T07:57:02.579Z,2.53
2019-01-10T07:58:03.086Z,3.11
2019-01-10T07:59:03.023Z,2.48
2019-01-10T08:00:03.574Z,2.72
2019-01-10T08:01:02.527Z,2.72
2019-01-10T08:02:03.273Z,2.35
2019-01-10T08:03:03.422Z,2.35
2019-01-10T08:04:02.308Z,2.58
2019-01-10T08:05:01.812Z,2.58
2019-01-10T08:06:04.800Z,2.73
2019-01-10T08:07:03.172Z,2.71
2019-01-10T08:08:03.260Z,2.25
2019-01-10T08:09:03.383Z,2.18
2019-01-10T08:10:03.038Z,2.44
2019-01-10T08:11:03.362Z,1.89
2019-01-10T08:12:03.456Z,2.35
2019-01-10T08:13:02.938Z,2.35
2019-01-10T08:14:03.574Z,2.29
2019-01-10T08:15:12.150Z,2.29
2019-01-10T08:16:03.186Z,2.41
2019-01-10T08:17:02.491Z,2.58
2019-01-10T08:18:03.466Z,2.61
2019-01-10T08:19:02.726Z,2.61
2019-01-10T08:20:02.804Z,2.82
2019-01-10T08:21:02.840Z,2.35
2019-01-10T08:22:03.258Z,2.09
2019-01-10T08:23:03.231Z,2.26
2019-01-10T08:24:03.033Z,2.26
2019-01-10T08:25:03.537Z,2.14
2019-01-10T08:26:02.542Z,2.5
2019-01-10T08:27:02.819Z,2.25
2019-01-10T08:28:03.086Z,2.03
2019-01-10T08:29:02.752Z,2.14
2019-01-10T08:30:03.444Z,2.76
2019-01-10T08:31:03.167Z,2.21
2019-01-10T08:32:04.325Z,2.28
2019-01-10T08:33:02.996Z,2.02
2019-01-10T08:34:02.632Z,2.62
2019-01-10T08:35:03.460Z,2.06
2019-01-10T08:36:02.836Z,2.06
2019-01-10T08:37:02.909Z,2.18
2019-01-10T08:38:03.516Z,2.01
2019-01-10T08:39:03.056Z,2.05
2019-01-10T08:40:02.888Z,2.05
2019-01-10T08:41:03.432Z,2.3
2019-01-10T08:42:02.907Z,2.28
2019-01-10T08:43:03.206Z,2.28
2019-01-10T08:44:02.534Z,2.66
2019-01-10T08:45:03.065Z,2.68
2019-01-10T08:46:02.752Z,2.96
2019-01-10T08:47:03.080Z,2.92
2019-01-10T08:48:02.127Z,2.71
2019-01-10T08:49:03.444Z,2.71
2019-01-10T08:50:03.303Z,2.71
2019-01-10T08:51:03.438Z,2.71
2019-01-10T08:52:03.528Z,2.71
2019-01-10T08:53:02.511Z,2.34
2019-01-10T08:54:03.397Z,2.76
2019-01-10T08:55:03.503Z,2.71
2019-01-10T08:56:02.782Z,2.78
2019-01-10T08:57:03.200Z,2.66
2019-01-10T08:58:02.902Z,2.98
2019-01-10T08:59:02.832Z,2.75
2019-01-10T09:00:03.463Z,2.94
2019-01-10T09:01:03.047Z,2.62
2019-01-10T09:02:02.782Z,2.07
2019-01-10T09:03:03.238Z,2.39
2019-01-10T09:04:03.240Z,2.39
2019-01-10T09:05:02.866Z,2.28
2019-01-10T09:06:08.556Z,2.28
2019-01-10T09:07:03.421Z,2.42
2019-01-10T09:08:02.880Z,2.59
2019-01-10T09:09:03.425Z,2.61
2019-01-10T09:10:03.160Z,2.63
2019-01-10T09:11:02.734Z,2.26
2019-01-10T09:12:02.171Z,2.86
2019-01-10T09:13:03.403Z,2.41
2019-01-10T09:14:04.849Z,2.41
2019-01-10T09:15:02.878Z,2.4
2019-01-10T09:16:02.995Z,2.68
2019-01-10T09:17:02.818Z,2.43
2019-01-10T09:18:02.566Z,2.43
2019-01-10T09:19:03.056Z,2.51
2019-01-10T09:20:02.780Z,2.67
2019-01-10T09:21:04.837Z,2.19
2019-01-10T09:22:03.605Z,2.41
2019-01-10T09:23:03.398Z,2.35
2019-01-10T09:24:02.906Z,2.17
2019-01-10T09:25:02.953Z,2.47
2019-01-10T09:26:03.727Z,2.47
2019-01-10T09:27:02.801Z,2.41
2019-01-10T09:28:03.478Z,2.41
2019-01-10T09:29:02.733Z,2.53
2019-01-10T09:30:03.378Z,2.53
2019-01-10T09:31:03.012Z,2.26
2019-01-10T09:32:03.019Z,2.26
2019-01-10T09:33:03.238Z,2.16
2019-01-10T09:34:02.902Z,2.18
2019-01-10T09:35:02.727Z,2.18
2019-01-10T09:36:02.481Z,2.45
2019-01-10T09:37:04.060Z,2.54
2019-01-10T09:38:03.140Z,2.54
2019-01-10T09:39:03.051Z,2.97
2019-01-10T09:40:02.647Z,2.65
2019-01-10T09:41:02.903Z,2.42
2019-01-10T09:42:03.366Z,2.54
2019-01-10T09:43:03.661Z,2.96
2019-01-10T09:44:02.695Z,2.33
2019-01-10T09:45:03.577Z,2.59
2019-01-10T09:46:02.542Z,2.16
2019-01-10T09:47:02.651Z,2.56
2019-01-10T09:48:03.176Z,2.77
2019-01-10T09:49:02.733Z,2.77
2019-01-10T09:50:02.569Z,2.8
2019-01-10T09:51:02.778Z,2.74
2019-01-10T09:52:03.342Z,2.79
2019-01-10T09:53:03.036Z,2.81
2019-01-10T09:54:03.129Z,3.32
2019-01-10T09:55:02.605Z,3.32
2019-01-10T09:56:03.012Z,5.75
2019-01-10T09:57:03.463Z,4.81
2019-01-10T09:58:02.769Z,2.02
2019-01-10T09:59:03.303Z,2.02
2019-01-10T10:00:03.303Z,3.16
2019-01-10T10:01:02.911Z,2.73
2019-01-10T10:02:02.596Z,2.73
2019-01-10T10:03:02.954Z,2.73
2019-01-10T10:04:01.912Z,2.61
2019-01-10T10:05:03.165Z,2.82
2019-01-10T10:06:08.231Z,2.92
2019-01-10T10:07:02.903Z,2.44
2019-01-10T10:08:02.909Z,2.88
2019-01-10T10:09:03.341Z,2.58
2019-01-10T10:10:02.964Z,2.58
2019-01-10T10:11:03.358Z,2.43
2019-01-10T10:12:03.164Z,2.58
2019-01-10T10:13:02.657Z,2.58
2019-01-10T10:14:02.761Z,2.91
2019-01-10T10:15:02.830Z,2.91
2019-01-10T10:16:03.178Z,3.14
2019-01-10T10:17:03.574Z,3.14
2019-01-10T10:18:02.746Z,2.89
2019-01-10T10:19:03.176Z,2.88
2019-01-10T10:20:02.579Z,2.48
2019-01-10T10:21:02.909Z,2.73
2019-01-10T10:22:02.609Z,2.57
2019-01-10T10:23:03.035Z,2.4
2019-01-10T10:24:03.061Z,2.54
2019-01-10T10:25:02.850Z,2.54
2019-01-10T10:26:03.105Z,2.99
2019-01-10T10:27:02.891Z,2.99
2019-01-10T10:28:02.919Z,2.63
2019-01-10T10:29:02.856Z,3.26
2019-01-10T10:30:02.868Z,3.26
2019-01-10T10:31:02.694Z,2.71
2019-01-10T10:32:02.905Z,2.8
2019-01-10T10:33:02.916Z,2.71
2019-01-10T10:34:03.554Z,2.71
2019-01-10T10:35:02.798Z,2.72
2019-01-10T10:36:03.146Z,2.84
2019-01-10T10:37:02.633Z,2.69
2019-01-10T10:38:02.770Z,2.69
2019-01-10T10:39:03.401Z,2.82
2019-01-10T10:40:03.304Z,2.72
2019-01-10T10:41:03.468Z,3.24
2019-01-10T10:42:02.742Z,3
2019-01-10T10:43:03.371Z,2.79
2019-01-10T10:44:03.244Z,3.17
2019-01-10T10:45:02.864Z,3.04
2019-01-10T10:46:02.192Z,2.65
2019-01-10T10:47:02.527Z,2.72
2019-01-10T10:48:01.855Z,2.55
2019-01-10T10:49:03.286Z,3.03
2019-01-10T10:50:02.887Z,3.38
2019-01-10T10:51:03.485Z,3.38
2019-01-10T10:52:03.442Z,2.47
2019-01-10T10:53:02.861Z,3.05
2019-01-10T10:54:03.473Z,2.89
2019-01-10T10:55:02.664Z,2.52
2019-01-10T10:56:03.376Z,2.78
2019-01-10T10:57:02.649Z,2.98
2019-01-10T10:58:03.207Z,2.98
2019-01-10T10:59:02.944Z,3.89
2019-01-10T11:00:03.328Z,4.52
2019-01-10T11:01:02.538Z,3.38
2019-01-10T11:02:03.846Z,3.38
2019-01-10T11:03:02.685Z,3.24
2019-01-10T11:04:03.464Z,3.24
2019-01-10T11:05:03.233Z,2.98
2019-01-10T11:06:02.783Z,3.04
2019-01-10T11:07:03.477Z,2.7
2019-01-10T11:08:02.654Z,2.6
2019-01-10T11:09:09.615Z,2.6
2019-01-10T11:10:03.322Z,2.94
2019-01-10T11:11:02.842Z,2.69
2019-01-10T11:12:02.620Z,2.69
2019-01-10T11:13:02.763Z,2.69
2019-01-10T11:14:03.132Z,2.69
2019-01-10T11:15:02.794Z,2.95
2019-01-10T11:16:10.899Z,2.95
2019-01-10T11:17:03.379Z,2.61
2019-01-10T11:18:02.879Z,2.61
2019-01-10T11:19:03.450Z,2.75
2019-01-10T11:20:03.083Z,2.7
2019-01-10T11:21:02.985Z,2.18
2019-01-10T11:22:03.363Z,2.18
2019-01-10T11:23:11.059Z,2.77
2019-01-10T11:24:03.564Z,3.22
2019-01-10T11:25:03.482Z,3.06
2019-01-10T11:26:03.029Z,3.06
2019-01-10T11:27:02.750Z,2.73
2019-01-10T11:28:03.381Z,3.18
2019-01-10T11:29:02.934Z,2.98
2019-01-10T11:30:03.571Z,2.95
2019-01-10T11:31:02.329Z,2.72
2019-01-10T11:32:03.115Z,2.87
2019-01-10T11:33:03.419Z,3.07
2019-01-10T11:34:03.149Z,2.81
2019-01-10T11:35:02.838Z,2.81
2019-01-10T11:36:02.922Z,2.79
2019-01-10T11:37:03.220Z,2.49
2019-01-10T11:38:03.519Z,3.08
2019-01-10T11:39:02.875Z,2.71
2019-01-10T11:40:02.966Z,2.71
2019-01-10T11:41:03.072Z,2.89
2019-01-10T11:42:03.000Z,2.89
2019-01-10T11:43:02.802Z,2.66
2019-01-10T11:44:02.606Z,2.66
2019-01-10T11:45:03.438Z,3.26
2019-01-10T11:46:02.952Z,3.26
2019-01-10T11:47:03.176Z,3.14
2019-01-10T11:48:02.808Z,2.98
2019-01-10T11:49:03.218Z,3.14
2019-01-10T11:50:03.648Z,2.65
2019-01-10T11:51:03.224Z,3.18
2019-01-10T11:52:01.872Z,3.18
2019-01-10T11:53:02.522Z,2.85
2019-01-10T11:54:03.214Z,2.85
2019-01-10T11:55:01.490Z,2.86
2019-01-10T11:56:03.199Z,2.81
2019-01-10T11:57:02.682Z,2.78
2019-01-10T11:58:03.485Z,2.78
2019-01-10T11:59:03.389Z,2.66
2019-01-10T12:00:02.637Z,2.66
2019-01-10T12:01:02.836Z,2.46
2019-01-10T12:02:02.714Z,2.46
2019-01-10T12:03:02.697Z,2.83
2019-01-10T12:04:03.207Z,2.83
2019-01-10T12:05:03.669Z,2.84
2019-01-10T12:06:03.527Z,2.6
2019-01-10T12:07:02.550Z,2.56
2019-01-10T12:08:03.233Z,2.56
2019-01-10T12:09:02.975Z,2.76
2019-01-10T12:10:03.577Z,2.76
2019-01-10T12:11:02.954Z,2.41
2019-01-10T12:12:02.811Z,2.55
2019-01-10T12:13:02.442Z,3.06
2019-01-10T12:14:03.431Z,2.55
2019-01-10T12:15:02.866Z,2.55
2019-01-10T12:16:03.547Z,2.39
2019-01-10T12:17:01.981Z,2.37
2019-01-10T12:18:02.766Z,2.44
2019-01-10T12:19:03.052Z,3.29
2019-01-10T12:20:03.140Z,2.83
2019-01-10T12:21:02.629Z,2.76
2019-01-10T12:22:03.123Z,2.76
2019-01-10T12:23:02.790Z,2.68
2019-01-10T12:24:03.388Z,2.68
2019-01-10T12:25:03.318Z,2.79
2019-01-10T12:26:02.706Z,2.42
2019-01-10T12:27:02.692Z,2.54
2019-01-10T12:28:03.400Z,2.54
2019-01-10T12:29:02.588Z,2.36
2019-01-10T12:30:03.244Z,3.92
2019-01-10T12:31:02.887Z,2.68
2019-01-10T12:32:02.486Z,2.5
2019-01-10T12:33:02.540Z,2.79
2019-01-10T12:34:02.485Z,2.85
2019-01-10T12:35:03.562Z,2.69
2019-01-10T12:36:02.684Z,3.09
2019-01-10T12:37:02.925Z,2.73
2019-01-10T12:38:01.640Z,2.19
2019-01-10T12:39:03.706Z,2.41
2019-01-10T12:40:01.643Z,2.71
2019-01-10T12:41:02.823Z,2.71
2019-01-10T12:42:03.424Z,2.92
2019-01-10T12:43:03.526Z,2.92
2019-01-10T12:44:02.845Z,2.64
2019-01-10T12:45:03.239Z,2.57
2019-01-10T12:46:02.931Z,2.57
2019-01-10T12:47:03.388Z,2.54
2019-01-10T12:48:02.924Z,2.54
2019-01-10T12:49:02.825Z,2.9
2019-01-10T12:50:03.580Z,2.9
2019-01-10T12:51:02.744Z,2.45
2019-01-10T12:52:02.933Z,2.45
2019-01-10T12:53:02.514Z,2.75
2019-01-10T12:54:03.576Z,2.84
2019-01-10T12:55:02.736Z,2.84
2019-01-10T12:56:02.761Z,2.47
2019-01-10T12:57:03.008Z,2.76
2019-01-10T12:58:02.680Z,2.76
2019-01-10T12:59:03.340Z,2.9
2019-01-10T13:00:02.389Z,2.69
2019-01-10T13:01:01.643Z,2.88
2019-01-10T13:02:03.366Z,2.82
2019-01-10T13:03:02.680Z,2.82
2019-01-10T13:04:03.216Z,3.05
2019-01-10T13:05:03.119Z,2.71
2019-01-10T13:06:02.824Z,3
2019-01-10T13:07:03.255Z,3
2019-01-10T13:08:04.170Z,2.77
2019-01-10T13:09:03.398Z,2.45
2019-01-10T13:10:02.956Z,3.15
2019-01-10T13:11:03.041Z,3.15
2019-01-10T13:12:02.834Z,2.98
2019-01-10T13:13:02.897Z,2.98
2019-01-10T13:14:05.687Z,2.78
2019-01-10T13:15:03.483Z,2.78
2019-01-10T13:16:02.892Z,3.02
2019-01-10T13:17:03.094Z,2.66
2019-01-10T13:18:03.271Z,3.09
2019-01-10T13:19:02.814Z,2.61
2019-01-10T13:20:02.777Z,2.74